Airfield :
LOGIN :

Register | Disclaimer

   EN    FR    IT 

 










Legend :    VFR   Marginal VFR   IFR   Intensive IFR   Very Intensive IFR
Visi :
Ceiling :
>= 8 km
>= 3000ft
5 to 8 km
1000 to 3000 ft
1500m to 5 km
500 to 1000 ft
800 to 1500m
200 to 500 ft
< 800m
< 200 ft
Symbols :   Thunderstorms  Fog  Heavy snow  Heavy precipitations  Wind > 20 kt
SIGMETs :     Misc.  Thunderstorms  Icing  Turbulence  Mountain Waves  Volcanic Ashes







- Airport Elevation : 56 ft
- IATA code : BZR
- Download approach charts


LFMU - Beziers / Vias

CURRENT METAR :
  • 210730Z AUTO 35005KT 8000 NSC 14/13 Q1022 NOSIG

EXPIRED METARs :
  • 210700Z AUTO 32004KT 5000 BR NSC 14/13 Q1022 TEMPO OVC005
  • 210630Z AUTO 30005KT 4300 BR NSC 13/12 Q1021 BECMG 9999 NSW
  • 210600Z AUTO 28007KT 5000 BR NSC 13/12 Q1021 NOSIG
  • 210530Z AUTO 28007KT 5000 BR NSC 13/12 Q1022 NOSIG
  • 210500Z AUTO 29006KT 4600 BR NSC 13/12 Q1022 TEMPO OVC005 BECMG 9999 NSW

TAF AMD TAF LFMU
Valid from the 21 at 07:00 until the 22 at 03:00 UTC


210702Z 2107/2203 28003KT CAVOK
TEMPO 2107/2108 4000 BR OVC005
BECMG 2108/2110 9999 NSW NSC
BECMG 2110/2112 28010KT CAVOK
ATIS : +33 4 67 90 88 88
No reported NOTAMs for that airfield.



MET'MAP, your aeronautical weather chart ! - Copyright ORBIFLY December 2007 - Disclaimer

ORBIFLY MET'MAP TEAM :

Programming & Development : Alexandra Zaïnal
Concept & Development : Baudouin d'Aumeries
Co-Development & Prog : Marc-Olivier Méhu
Technical & hardware support : Manuel Goepfert

Contact : metmap@orbifly.com




SOURCES & CREDITS :

   NOAA